sensor_id;sensor_type;location;lat;lon;timestamp;pressure;altitude;pressure_sealevel;temperature;humidity
21574;BME280;10948;48.706;9.258;2023-03-17T00:00:59;97557.91;;;4.16;100.00
21574;BME280;10948;48.706;9.258;2023-03-17T00:03:27;97560.69;;;4.33;100.00
21574;BME280;10948;48.706;9.258;2023-03-17T00:05:56;97545.91;;;4.16;100.00
21574;BME280;10948;48.706;9.258;2023-03-17T00:08:23;97549.88;;;4.45;100.00
21574;BME280;10948;48.706;9.258;2023-03-17T00:10:49;97548.75;;;4.09;100.00
21574;BME280;10948;48.706;9.258;2023-03-17T00:13:15;97548.16;;;4.24;100.00
21574;BME280;10948;48.706;9.258;2023-03-17T00:15:40;97539.81;;;3.96;100.00
21574;BME280;10948;48.706;9.258;2023-03-17T00:18:09;97544.63;;;3.82;100.00
21574;BME280;10948;48.706;9.258;2023-03-17T00:20:35;97535.75;;;3.67;100.00
21574;BME280;10948;48.706;9.258;2023-03-17T00:23:01;97528.63;;;3.97;100.00
21574;BME280;10948;48.706;9.258;2023-03-17T00:25:29;97532.53;;;3.84;100.00
21574;BME280;10948;48.706;9.258;2023-03-17T00:27:55;97531.84;;;4.02;100.00
21574;BME280;10948;48.706;9.258;2023-03-17T00:30:22;97526.66;;;4.03;100.00
21574;BME280;10948;48.706;9.258;2023-03-17T00:32:49;97521.94;;;3.93;100.00
21574;BME280;10948;48.706;9.258;2023-03-17T00:35:27;97515.16;;;4.12;100.00
21574;BME280;10948;48.706;9.258;2023-03-17T00:37:54;97514.84;;;4.19;100.00
21574;BME280;10948;48.706;9.258;2023-03-17T00:42:46;97509.75;;;4.18;100.00
21574;BME280;10948;48.706;9.258;2023-03-17T00:45:11;97513.13;;;3.98;100.00
21574;BME280;10948;48.706;9.258;2023-03-17T00:47:37;97513.16;;;3.97;100.00
21574;BME280;10948;48.706;9.258;2023-03-17T00:50:04;97505.88;;;4.08;100.00
21574;BME280;10948;48.706;9.258;2023-03-17T00:52:30;97504.69;;;4.16;100.00
21574;BME280;10948;48.706;9.258;2023-03-17T00:54:56;97500.59;;;4.11;100.00
21574;BME280;10948;48.706;9.258;2023-03-17T00:57:21;97502.03;;;4.18;100.00
21574;BME280;10948;48.706;9.258;2023-03-17T00:59:47;97493.06;;;4.28;100.00
21574;BME280;10948;48.706;9.258;2023-03-17T01:02:12;97492.47;;;4.21;100.00
21574;BME280;10948;48.706;9.258;2023-03-17T01:04:38;97497.13;;;4.12;100.00
21574;BME280;10948;48.706;9.258;2023-03-17T01:07:05;97495.34;;;4.14;100.00
21574;BME280;10948;48.706;9.258;2023-03-17T01:09:30;97495.66;;;4.28;100.00
21574;BME280;10948;48.706;9.258;2023-03-17T01:11:57;97485.25;;;4.51;100.00
21574;BME280;10948;48.706;9.258;2023-03-17T01:14:23;97471.91;;;4.61;100.00
21574;BME280;10948;48.706;9.258;2023-03-17T01:16:48;97471.31;;;4.35;100.00
21574;BME280;10948;48.706;9.258;2023-03-17T01:19:14;97458.69;;;4.29;100.00
21574;BME280;10948;48.706;9.258;2023-03-17T01:21:40;97456.63;;;4.37;100.00
21574;BME280;10948;48.706;9.258;2023-03-17T01:24:06;97457.09;;;4.46;100.00
21574;BME280;10948;48.706;9.258;2023-03-17T01:26:32;97458.97;;;4.63;100.00
21574;BME280;10948;48.706;9.258;2023-03-17T01:28:57;97468.50;;;4.41;100.00
21574;BME280;10948;48.706;9.258;2023-03-17T01:31:22;97462.19;;;4.48;100.00
21574;BME280;10948;48.706;9.258;2023-03-17T01:33:48;97463.13;;;4.25;100.00
21574;BME280;10948;48.706;9.258;2023-03-17T01:36:13;97464.06;;;4.44;100.00
21574;BME280;10948;48.706;9.258;2023-03-17T01:38:39;97469.75;;;4.31;100.00
21574;BME280;10948;48.706;9.258;2023-03-17T01:41:05;97463.34;;;4.41;100.00
21574;BME280;10948;48.706;9.258;2023-03-17T01:43:30;97469.94;;;4.05;100.00
21574;BME280;10948;48.706;9.258;2023-03-17T01:53:53;97456.13;;;4.29;100.00
21574;BME280;10948;48.706;9.258;2023-03-17T01:56:19;97456.09;;;4.70;100.00
21574;BME280;10948;48.706;9.258;2023-03-17T01:58:44;97451.19;;;4.64;100.00
21574;BME280;10948;48.706;9.258;2023-03-17T02:01:11;97443.91;;;4.54;100.00
21574;BME280;10948;48.706;9.258;2023-03-17T02:03:38;97443.09;;;4.32;100.00
21574;BME280;10948;48.706;9.258;2023-03-17T02:06:04;97443.72;;;4.17;100.00
21574;BME280;10948;48.706;9.258;2023-03-17T02:08:31;97440.16;;;4.21;100.00
21574;BME280;10948;48.706;9.258;2023-03-17T02:10:57;97438.53;;;4.18;100.00
21574;BME280;10948;48.706;9.258;2023-03-17T02:13:23;97439.91;;;4.27;100.00
21574;BME280;10948;48.706;9.258;2023-03-17T02:15:49;97444.06;;;4.09;100.00
21574;BME280;10948;48.706;9.258;2023-03-17T02:18:15;97446.81;;;4.25;100.00
21574;BME280;10948;48.706;9.258;2023-03-17T02:23:10;97447.09;;;4.19;100.00
21574;BME280;10948;48.706;9.258;2023-03-17T02:25:36;97446.63;;;4.09;100.00
21574;BME280;10948;48.706;9.258;2023-03-17T02:28:10;97447.22;;;4.16;100.00
21574;BME280;10948;48.706;9.258;2023-03-17T02:30:38;97442.06;;;4.16;100.00
21574;BME280;10948;48.706;9.258;2023-03-17T02:33:03;97444.75;;;4.13;100.00
21574;BME280;10948;48.706;9.258;2023-03-17T02:35:28;97445.84;;;4.49;100.00
21574;BME280;10948;48.706;9.258;2023-03-17T02:37:54;97439.47;;;4.57;100.00
21574;BME280;10948;48.706;9.258;2023-03-17T02:40:20;97445.09;;;4.67;100.00
21574;BME280;10948;48.706;9.258;2023-03-17T02:42:46;97442.09;;;4.56;100.00
21574;BME280;10948;48.706;9.258;2023-03-17T02:45:11;97446.44;;;4.14;100.00
21574;BME280;10948;48.706;9.258;2023-03-17T02:47:37;97443.56;;;4.00;100.00
21574;BME280;10948;48.706;9.258;2023-03-17T02:50:02;97434.59;;;4.30;100.00
21574;BME280;10948;48.706;9.258;2023-03-17T02:52:28;97437.63;;;3.98;100.00
21574;BME280;10948;48.706;9.258;2023-03-17T02:54:54;97438.47;;;4.20;100.00
21574;BME280;10948;48.706;9.258;2023-03-17T02:57:19;97435.63;;;4.06;100.00
21574;BME280;10948;48.706;9.258;2023-03-17T02:59:45;97442.53;;;4.04;100.00
21574;BME280;10948;48.706;9.258;2023-03-17T03:02:10;97439.41;;;3.74;100.00
21574;BME280;10948;48.706;9.258;2023-03-17T03:04:36;97427.56;;;4.13;100.00
21574;BME280;10948;48.706;9.258;2023-03-17T03:07:01;97425.41;;;4.03;100.00
21574;BME280;10948;48.706;9.258;2023-03-17T03:09:28;97411.06;;;3.76;100.00
21574;BME280;10948;48.706;9.258;2023-03-17T03:11:53;97410.13;;;4.00;100.00
21574;BME280;10948;48.706;9.258;2023-03-17T03:14:19;97430.47;;;3.84;100.00
21574;BME280;10948;48.706;9.258;2023-03-17T03:16:44;97433.00;;;3.86;100.00
21574;BME280;10948;48.706;9.258;2023-03-17T03:19:10;97425.19;;;3.87;100.00
21574;BME280;10948;48.706;9.258;2023-03-17T03:21:36;97422.78;;;4.04;100.00
21574;BME280;10948;48.706;9.258;2023-03-17T03:24:01;97421.69;;;4.10;100.00
21574;BME280;10948;48.706;9.258;2023-03-17T03:26:27;97405.78;;;4.00;100.00
21574;BME280;10948;48.706;9.258;2023-03-17T03:28:52;97419.09;;;3.90;100.00
21574;BME280;10948;48.706;9.258;2023-03-17T03:31:18;97419.03;;;3.91;100.00
21574;BME280;10948;48.706;9.258;2023-03-17T03:33:43;97427.22;;;3.79;100.00
21574;BME280;10948;48.706;9.258;2023-03-17T03:36:09;97425.78;;;3.94;100.00
21574;BME280;10948;48.706;9.258;2023-03-17T03:38:35;97412.50;;;4.04;100.00
21574;BME280;10948;48.706;9.258;2023-03-17T03:41:00;97417.16;;;3.95;100.00
21574;BME280;10948;48.706;9.258;2023-03-17T03:43:25;97419.88;;;3.70;100.00
21574;BME280;10948;48.706;9.258;2023-03-17T03:45:51;97414.53;;;3.75;100.00
21574;BME280;10948;48.706;9.258;2023-03-17T03:48:16;97418.28;;;3.45;100.00
21574;BME280;10948;48.706;9.258;2023-03-17T03:50:41;97427.34;;;3.55;100.00
21574;BME280;10948;48.706;9.258;2023-03-17T03:53:07;97428.63;;;3.65;100.00
21574;BME280;10948;48.706;9.258;2023-03-17T03:55:32;97428.72;;;3.63;100.00
21574;BME280;10948;48.706;9.258;2023-03-17T03:57:57;97430.19;;;3.47;100.00
21574;BME280;10948;48.706;9.258;2023-03-17T04:00:22;97422.44;;;3.70;100.00
21574;BME280;10948;48.706;9.258;2023-03-17T04:02:48;97414.69;;;3.49;100.00
21574;BME280;10948;48.706;9.258;2023-03-17T04:05:14;97415.66;;;3.46;100.00
21574;BME280;10948;48.706;9.258;2023-03-17T04:07:39;97414.25;;;3.61;100.00
21574;BME280;10948;48.706;9.258;2023-03-17T04:10:05;97415.81;;;3.42;100.00
21574;BME280;10948;48.706;9.258;2023-03-17T04:12:31;97400.28;;;3.66;100.00
21574;BME280;10948;48.706;9.258;2023-03-17T04:14:56;97408.13;;;3.42;100.00
21574;BME280;10948;48.706;9.258;2023-03-17T04:17:21;97404.28;;;3.30;100.00
21574;BME280;10948;48.706;9.258;2023-03-17T04:19:47;97408.06;;;3.20;100.00
21574;BME280;10948;48.706;9.258;2023-03-17T04:22:12;97410.25;;;3.08;100.00
21574;BME280;10948;48.706;9.258;2023-03-17T04:24:37;97418.66;;;3.13;100.00
21574;BME280;10948;48.706;9.258;2023-03-17T04:27:03;97412.38;;;2.97;100.00
21574;BME280;10948;48.706;9.258;2023-03-17T04:29:28;97406.56;;;3.15;100.00
21574;BME280;10948;48.706;9.258;2023-03-17T04:31:54;97403.72;;;3.22;100.00
21574;BME280;10948;48.706;9.258;2023-03-17T04:34:20;97410.25;;;3.08;100.00
21574;BME280;10948;48.706;9.258;2023-03-17T04:36:45;97412.91;;;2.82;100.00
21574;BME280;10948;48.706;9.258;2023-03-17T04:39:11;97406.53;;;2.92;100.00
21574;BME280;10948;48.706;9.258;2023-03-17T04:41:37;97411.13;;;2.84;100.00
21574;BME280;10948;48.706;9.258;2023-03-17T04:44:02;97403.72;;;2.76;100.00
21574;BME280;10948;48.706;9.258;2023-03-17T04:46:27;97399.56;;;2.72;100.00
21574;BME280;10948;48.706;9.258;2023-03-17T04:48:53;97398.97;;;2.66;100.00
21574;BME280;10948;48.706;9.258;2023-03-17T04:51:18;97396.88;;;2.75;100.00
21574;BME280;10948;48.706;9.258;2023-03-17T04:53:43;97393.47;;;2.75;100.00
21574;BME280;10948;48.706;9.258;2023-03-17T04:56:09;97391.91;;;2.71;100.00
21574;BME280;10948;48.706;9.258;2023-03-17T04:58:35;97389.63;;;2.86;100.00
21574;BME280;10948;48.706;9.258;2023-03-17T05:01:00;97385.22;;;2.90;100.00
21574;BME280;10948;48.706;9.258;2023-03-17T05:03:27;97392.19;;;2.63;100.00
21574;BME280;10948;48.706;9.258;2023-03-17T05:05:55;97384.75;;;2.56;100.00
21574;BME280;10948;48.706;9.258;2023-03-17T05:08:21;97387.31;;;2.79;100.00
21574;BME280;10948;48.706;9.258;2023-03-17T05:10:46;97385.88;;;2.72;100.00
21574;BME280;10948;48.706;9.258;2023-03-17T05:13:11;97384.63;;;2.59;100.00
21574;BME280;10948;48.706;9.258;2023-03-17T05:15:37;97384.00;;;2.52;100.00
21574;BME280;10948;48.706;9.258;2023-03-17T05:18:02;97384.78;;;2.54;100.00
21574;BME280;10948;48.706;9.258;2023-03-17T05:20:27;97380.06;;;2.67;100.00
21574;BME280;10948;48.706;9.258;2023-03-17T05:22:52;97377.00;;;2.80;100.00
21574;BME280;10948;48.706;9.258;2023-03-17T05:25:18;97373.44;;;2.37;100.00
21574;BME280;10948;48.706;9.258;2023-03-17T05:27:43;97377.28;;;2.24;100.00
21574;BME280;10948;48.706;9.258;2023-03-17T05:30:08;97377.75;;;2.36;100.00
21574;BME280;10948;48.706;9.258;2023-03-17T05:32:34;97378.41;;;2.41;100.00
21574;BME280;10948;48.706;9.258;2023-03-17T05:35:00;97388.13;;;2.32;100.00
21574;BME280;10948;48.706;9.258;2023-03-17T05:37:28;97391.13;;;2.20;100.00
21574;BME280;10948;48.706;9.258;2023-03-17T05:39:53;97397.09;;;2.20;100.00
21574;BME280;10948;48.706;9.258;2023-03-17T05:42:18;97395.75;;;2.35;100.00
21574;BME280;10948;48.706;9.258;2023-03-17T05:44:44;97397.94;;;2.21;100.00
21574;BME280;10948;48.706;9.258;2023-03-17T05:47:09;97406.81;;;2.11;100.00
21574;BME280;10948;48.706;9.258;2023-03-17T05:49:35;97404.53;;;2.28;100.00
21574;BME280;10948;48.706;9.258;2023-03-17T05:52:00;97403.28;;;2.64;100.00
21574;BME280;10948;48.706;9.258;2023-03-17T05:54:26;97402.75;;;2.79;100.00
21574;BME280;10948;48.706;9.258;2023-03-17T05:56:52;97397.50;;;2.82;100.00
21574;BME280;10948;48.706;9.258;2023-03-17T05:59:17;97393.69;;;2.92;100.00
21574;BME280;10948;48.706;9.258;2023-03-17T06:01:43;97391.16;;;3.15;100.00
21574;BME280;10948;48.706;9.258;2023-03-17T06:04:08;97387.00;;;3.11;100.00
21574;BME280;10948;48.706;9.258;2023-03-17T06:06:33;97389.25;;;3.41;100.00
21574;BME280;10948;48.706;9.258;2023-03-17T06:08:59;97380.50;;;3.24;100.00
21574;BME280;10948;48.706;9.258;2023-03-17T06:11:25;97384.28;;;3.60;100.00
21574;BME280;10948;48.706;9.258;2023-03-17T06:13:50;97382.94;;;3.93;100.00
21574;BME280;10948;48.706;9.258;2023-03-17T06:16:15;97381.28;;;4.12;100.00
21574;BME280;10948;48.706;9.258;2023-03-17T06:18:41;97381.84;;;4.60;100.00
21574;BME280;10948;48.706;9.258;2023-03-17T06:21:06;97386.69;;;4.86;100.00
21574;BME280;10948;48.706;9.258;2023-03-17T06:23:32;97405.69;;;5.03;100.00
21574;BME280;10948;48.706;9.258;2023-03-17T06:25:57;97407.28;;;5.06;100.00
21574;BME280;10948;48.706;9.258;2023-03-17T06:28:22;97403.38;;;5.34;100.00
21574;BME280;10948;48.706;9.258;2023-03-17T06:30:48;97394.34;;;5.44;100.00
21574;BME280;10948;48.706;9.258;2023-03-17T06:33:13;97405.97;;;5.34;100.00
21574;BME280;10948;48.706;9.258;2023-03-17T06:35:40;97408.13;;;5.24;100.00
21574;BME280;10948;48.706;9.258;2023-03-17T06:38:05;97405.31;;;5.10;100.00
21574;BME280;10948;48.706;9.258;2023-03-17T06:40:32;97398.59;;;5.26;100.00
21574;BME280;10948;48.706;9.258;2023-03-17T06:42:58;97405.63;;;5.60;100.00
21574;BME280;10948;48.706;9.258;2023-03-17T06:45:24;97399.75;;;5.93;100.00
21574;BME280;10948;48.706;9.258;2023-03-17T06:47:49;97394.31;;;6.84;100.00
21574;BME280;10948;48.706;9.258;2023-03-17T06:50:15;97388.66;;;7.41;97.86
21574;BME280;10948;48.706;9.258;2023-03-17T06:52:40;97383.13;;;8.09;93.23
21574;BME280;10948;48.706;9.258;2023-03-17T06:55:06;97381.84;;;8.61;89.21
21574;BME280;10948;48.706;9.258;2023-03-17T06:57:32;97380.84;;;8.92;86.86
21574;BME280;10948;48.706;9.258;2023-03-17T06:59:58;97379.88;;;9.77;81.45
21574;BME280;10948;48.706;9.258;2023-03-17T07:02:23;97375.84;;;11.02;74.04
21574;BME280;10948;48.706;9.258;2023-03-17T07:04:48;97380.59;;;11.70;70.08
21574;BME280;10948;48.706;9.258;2023-03-17T07:07:14;97375.88;;;13.70;63.31
21574;BME280;10948;48.706;9.258;2023-03-17T07:09:40;97363.03;;;13.12;59.78
21574;BME280;10948;48.706;9.258;2023-03-17T07:12:06;97374.97;;;14.56;57.07
21574;BME280;10948;48.706;9.258;2023-03-17T07:14:32;97376.13;;;15.04;54.32
21574;BME280;10948;48.706;9.258;2023-03-17T07:16:58;97392.50;;;15.67;53.15
21574;BME280;10948;48.706;9.258;2023-03-17T07:19:23;97388.41;;;15.54;52.45
21574;BME280;10948;48.706;9.258;2023-03-17T07:21:49;97387.63;;;15.12;52.80
21574;BME280;10948;48.706;9.258;2023-03-17T07:24:14;97391.53;;;13.92;54.66
21574;BME280;10948;48.706;9.258;2023-03-17T07:26:40;97382.78;;;13.71;56.02
21574;BME280;10948;48.706;9.258;2023-03-17T07:29:05;97387.06;;;12.82;58.78
21574;BME280;10948;48.706;9.258;2023-03-17T07:31:30;97392.56;;;11.73;62.20
21574;BME280;10948;48.706;9.258;2023-03-17T07:33:56;97381.59;;;13.64;61.34
21574;BME280;10948;48.706;9.258;2023-03-17T07:36:21;97382.78;;;14.87;56.61
21574;BME280;10948;48.706;9.258;2023-03-17T07:38:46;97370.63;;;15.97;53.98
21574;BME280;10948;48.706;9.258;2023-03-17T07:41:12;97374.28;;;16.34;51.46
21574;BME280;10948;48.706;9.258;2023-03-17T07:43:37;97377.13;;;15.53;51.77
21574;BME280;10948;48.706;9.258;2023-03-17T07:46:03;97377.16;;;14.40;54.65
21574;BME280;10948;48.706;9.258;2023-03-17T07:48:28;97381.09;;;13.48;57.30
21574;BME280;10948;48.706;9.258;2023-03-17T07:50:55;97373.25;;;13.48;58.81
21574;BME280;10948;48.706;9.258;2023-03-17T07:53:21;97376.00;;;13.46;58.95
21574;BME280;10948;48.706;9.258;2023-03-17T07:55:46;97371.59;;;13.03;59.59
21574;BME280;10948;48.706;9.258;2023-03-17T07:58:13;97369.47;;;13.30;60.02
21574;BME280;10948;48.706;9.258;2023-03-17T08:00:38;97365.88;;;14.39;57.48
21574;BME280;10948;48.706;9.258;2023-03-17T08:03:04;97370.41;;;15.40;55.31
21574;BME280;10948;48.706;9.258;2023-03-17T08:05:29;97361.84;;;17.57;50.15
21574;BME280;10948;48.706;9.258;2023-03-17T08:07:55;97362.28;;;16.41;49.08
21574;BME280;10948;48.706;9.258;2023-03-17T08:10:20;97364.28;;;15.99;51.88
21574;BME280;10948;48.706;9.258;2023-03-17T08:12:46;97360.63;;;18.33;48.46
21574;BME280;10948;48.706;9.258;2023-03-17T08:15:16;97370.16;;;17.89;45.61
21574;BME280;10948;48.706;9.258;2023-03-17T08:17:41;97364.25;;;18.05;47.22
21574;BME280;10948;48.706;9.258;2023-03-17T08:20:07;97358.72;;;17.98;46.38
21574;BME280;10948;48.706;9.258;2023-03-17T08:22:33;97364.88;;;17.89;47.85
21574;BME280;10948;48.706;9.258;2023-03-17T08:24:58;97366.31;;;18.98;45.33
21574;BME280;10948;48.706;9.258;2023-03-17T08:27:24;97369.47;;;21.17;42.89
21574;BME280;10948;48.706;9.258;2023-03-17T08:29:49;97365.69;;;19.22;42.50
21574;BME280;10948;48.706;9.258;2023-03-17T08:32:15;97373.88;;;18.14;45.91
21574;BME280;10948;48.706;9.258;2023-03-17T08:34:40;97372.69;;;17.81;45.84
21574;BME280;10948;48.706;9.258;2023-03-17T08:37:08;97361.81;;;18.38;45.64
21574;BME280;10948;48.706;9.258;2023-03-17T08:39:33;97370.78;;;17.18;48.50
21574;BME280;10948;48.706;9.258;2023-03-17T08:41:59;97355.94;;;18.79;46.96
21574;BME280;10948;48.706;9.258;2023-03-17T08:44:24;97350.53;;;19.49;43.72
21574;BME280;10948;48.706;9.258;2023-03-17T08:46:50;97349.94;;;18.52;44.88
21574;BME280;10948;48.706;9.258;2023-03-17T08:49:17;97348.16;;;19.38;44.98
21574;BME280;10948;48.706;9.258;2023-03-17T08:51:42;97353.16;;;17.47;46.03
21574;BME280;10948;48.706;9.258;2023-03-17T08:54:09;97352.44;;;16.90;47.66
21574;BME280;10948;48.706;9.258;2023-03-17T08:56:35;97364.28;;;17.41;48.31
21574;BME280;10948;48.706;9.258;2023-03-17T08:59:01;97345.66;;;19.62;45.51
21574;BME280;10948;48.706;9.258;2023-03-17T09:01:27;97345.81;;;18.49;44.20
21574;BME280;10948;48.706;9.258;2023-03-17T09:03:53;97346.50;;;18.24;45.50
21574;BME280;10948;48.706;9.258;2023-03-17T09:06:19;97347.00;;;18.10;45.79
21574;BME280;10948;48.706;9.258;2023-03-17T09:08:46;97344.59;;;18.61;45.19
21574;BME280;10948;48.706;9.258;2023-03-17T09:11:18;97348.38;;;17.60;46.04
21574;BME280;10948;48.706;9.258;2023-03-17T09:13:44;97343.34;;;17.76;45.35
21574;BME280;10948;48.706;9.258;2023-03-17T09:16:13;97333.22;;;18.43;44.73
21574;BME280;10948;48.706;9.258;2023-03-17T09:18:40;97339.97;;;19.49;44.24
21574;BME280;10948;48.706;9.258;2023-03-17T09:21:06;97332.63;;;19.35;44.73
21574;BME280;10948;48.706;9.258;2023-03-17T09:23:31;97339.47;;;19.20;44.03
21574;BME280;10948;48.706;9.258;2023-03-17T09:25:57;97335.94;;;19.37;43.59
21574;BME280;10948;48.706;9.258;2023-03-17T09:28:23;97329.44;;;20.80;43.18
21574;BME280;10948;48.706;9.258;2023-03-17T09:30:48;97330.94;;;20.01;42.31
21574;BME280;10948;48.706;9.258;2023-03-17T09:33:14;97323.44;;;20.38;42.33
21574;BME280;10948;48.706;9.258;2023-03-17T09:35:40;97333.22;;;19.55;43.24
21574;BME280;10948;48.706;9.258;2023-03-17T09:38:06;97333.72;;;20.65;41.71
21574;BME280;10948;48.706;9.258;2023-03-17T09:40:32;97338.50;;;22.27;41.13
21574;BME280;10948;48.706;9.258;2023-03-17T09:43:09;97338.72;;;21.08;41.44
21574;BME280;10948;48.706;9.258;2023-03-17T09:45:36;97338.53;;;20.86;42.23
21574;BME280;10948;48.706;9.258;2023-03-17T09:50:42;97335.91;;;19.29;42.95
21574;BME280;10948;48.706;9.258;2023-03-17T09:53:17;97339.56;;;18.93;45.47
21574;BME280;10948;48.706;9.258;2023-03-17T09:55:42;97337.38;;;19.99;44.02
21574;BME280;10948;48.706;9.258;2023-03-17T09:58:09;97337.84;;;20.52;43.29
21574;BME280;10948;48.706;9.258;2023-03-17T10:00:35;97335.03;;;22.57;40.08
21574;BME280;10948;48.706;9.258;2023-03-17T10:03:01;97330.72;;;22.25;40.65
21574;BME280;10948;48.706;9.258;2023-03-17T10:05:34;97321.31;;;20.82;42.24
21574;BME280;10948;48.706;9.258;2023-03-17T10:18:10;97317.69;;;23.72;36.83
21574;BME280;10948;48.706;9.258;2023-03-17T10:20:38;97304.53;;;22.53;38.03
21574;BME280;10948;48.706;9.258;2023-03-17T10:23:06;97307.53;;;23.75;37.83
21574;BME280;10948;48.706;9.258;2023-03-17T10:25:36;97308.34;;;24.40;36.02
21574;BME280;10948;48.706;9.258;2023-03-17T10:28:04;97309.44;;;24.87;35.55
21574;BME280;10948;48.706;9.258;2023-03-17T10:30:32;97301.28;;;23.97;36.35
21574;BME280;10948;48.706;9.258;2023-03-17T10:32:58;97298.50;;;24.40;35.88
21574;BME280;10948;48.706;9.258;2023-03-17T10:35:25;97305.97;;;23.37;37.19
21574;BME280;10948;48.706;9.258;2023-03-17T10:37:50;97297.28;;;23.58;37.29
21574;BME280;10948;48.706;9.258;2023-03-17T10:40:20;97291.97;;;23.72;37.53
21574;BME280;10948;48.706;9.258;2023-03-17T10:42:47;97299.53;;;23.75;37.64
21574;BME280;10948;48.706;9.258;2023-03-17T10:45:15;97284.00;;;24.07;36.59
21574;BME280;10948;48.706;9.258;2023-03-17T10:47:48;97288.28;;;21.56;39.81
21574;BME280;10948;48.706;9.258;2023-03-17T10:50:17;97293.53;;;21.72;40.08
21574;BME280;10948;48.706;9.258;2023-03-17T10:52:43;97293.56;;;20.46;41.53
21574;BME280;10948;48.706;9.258;2023-03-17T10:55:11;97298.03;;;21.72;40.90
21574;BME280;10948;48.706;9.258;2023-03-17T10:57:38;97291.91;;;20.45;42.52
21574;BME280;10948;48.706;9.258;2023-03-17T11:00:11;97291.09;;;21.71;41.72
21574;BME280;10948;48.706;9.258;2023-03-17T11:02:42;97298.63;;;21.35;40.63
21574;BME280;10948;48.706;9.258;2023-03-17T11:05:21;97288.94;;;21.04;40.49
21574;BME280;10948;48.706;9.258;2023-03-17T11:07:47;97289.88;;;22.12;39.84
21574;BME280;10948;48.706;9.258;2023-03-17T11:10:22;97285.50;;;21.42;40.40
21574;BME280;10948;48.706;9.258;2023-03-17T11:12:53;97281.16;;;20.70;40.80
21574;BME280;10948;48.706;9.258;2023-03-17T11:15:19;97279.44;;;21.25;40.66
21574;BME280;10948;48.706;9.258;2023-03-17T11:17:58;97281.78;;;21.20;40.20
21574;BME280;10948;48.706;9.258;2023-03-17T11:23:00;97272.38;;;23.07;37.37
21574;BME280;10948;48.706;9.258;2023-03-17T11:25:28;97262.47;;;22.87;38.03
21574;BME280;10948;48.706;9.258;2023-03-17T11:30:30;97250.72;;;22.44;38.94
21574;BME280;10948;48.706;9.258;2023-03-17T11:33:03;97247.13;;;22.60;37.88
21574;BME280;10948;48.706;9.258;2023-03-17T11:38:18;97241.13;;;22.80;36.81
21574;BME280;10948;48.706;9.258;2023-03-17T11:45:40;97237.72;;;23.23;37.39
21574;BME280;10948;48.706;9.258;2023-03-17T11:50:54;97234.91;;;24.45;35.26
21574;BME280;10948;48.706;9.258;2023-03-17T11:53:25;97234.56;;;23.63;34.86
21574;BME280;10948;48.706;9.258;2023-03-17T11:55:56;97229.44;;;23.91;34.64
21574;BME280;10948;48.706;9.258;2023-03-17T12:00:56;97222.22;;;23.12;35.88
21574;BME280;10948;48.706;9.258;2023-03-17T12:03:45;97219.97;;;23.73;35.40
21574;BME280;10948;48.706;9.258;2023-03-17T12:06:31;97212.63;;;23.40;35.91
21574;BME280;10948;48.706;9.258;2023-03-17T12:09:05;97210.06;;;23.32;36.49
21574;BME280;10948;48.706;9.258;2023-03-17T12:11:34;97212.25;;;23.14;37.46
21574;BME280;10948;48.706;9.258;2023-03-17T12:14:01;97204.31;;;21.95;35.80
21574;BME280;10948;48.706;9.258;2023-03-17T12:16:30;97203.66;;;22.46;36.27
21574;BME280;10948;48.706;9.258;2023-03-17T12:21:52;97201.03;;;22.75;35.62
21574;BME280;10948;48.706;9.258;2023-03-17T12:24:41;97200.16;;;22.46;36.13
21574;BME280;10948;48.706;9.258;2023-03-17T12:27:18;97196.84;;;22.95;35.68
21574;BME280;10948;48.706;9.258;2023-03-17T12:29:47;97199.75;;;24.29;35.65
21574;BME280;10948;48.706;9.258;2023-03-17T12:34:59;97199.97;;;24.55;35.48
21574;BME280;10948;48.706;9.258;2023-03-17T12:37:27;97198.16;;;22.99;36.37
21574;BME280;10948;48.706;9.258;2023-03-17T12:39:59;97198.25;;;22.09;37.38
21574;BME280;10948;48.706;9.258;2023-03-17T12:48:08;97192.91;;;22.77;36.61
21574;BME280;10948;48.706;9.258;2023-03-17T12:55:32;97178.69;;;22.55;36.19
21574;BME280;10948;48.706;9.258;2023-03-17T12:58:01;97179.28;;;23.23;35.93
21574;BME280;10948;48.706;9.258;2023-03-17T13:00:31;97177.53;;;22.87;36.48
21574;BME280;10948;48.706;9.258;2023-03-17T13:05:45;97166.19;;;22.41;37.00
21574;BME280;10948;48.706;9.258;2023-03-17T13:08:14;97165.22;;;21.97;36.61
21574;BME280;10948;48.706;9.258;2023-03-17T13:10:44;97157.94;;;21.99;36.78
21574;BME280;10948;48.706;9.258;2023-03-17T13:20:49;97148.97;;;22.37;37.98
21574;BME280;10948;48.706;9.258;2023-03-17T13:23:15;97146.19;;;21.94;38.18
21574;BME280;10948;48.706;9.258;2023-03-17T13:49:03;97116.75;;;22.63;36.70
21574;BME280;10948;48.706;9.258;2023-03-17T13:51:39;97112.09;;;22.79;36.12
21574;BME280;10948;48.706;9.258;2023-03-17T13:56:50;97118.66;;;22.54;36.15
21574;BME280;10948;48.706;9.258;2023-03-17T13:59:23;97108.97;;;22.24;37.00
21574;BME280;10948;48.706;9.258;2023-03-17T14:01:56;97107.28;;;21.94;38.07
21574;BME280;10948;48.706;9.258;2023-03-17T14:04:26;97107.34;;;21.86;37.41
21574;BME280;10948;48.706;9.258;2023-03-17T14:06:53;97105.78;;;22.29;37.58
21574;BME280;10948;48.706;9.258;2023-03-17T14:11:48;97096.56;;;21.57;37.36
21574;BME280;10948;48.706;9.258;2023-03-17T14:14:20;97091.84;;;22.12;37.24
21574;BME280;10948;48.706;9.258;2023-03-17T14:19:22;97095.78;;;21.57;37.32
21574;BME280;10948;48.706;9.258;2023-03-17T14:21:47;97092.69;;;21.45;36.88
21574;BME280;10948;48.706;9.258;2023-03-17T14:24:18;97089.06;;;21.69;37.67
21574;BME280;10948;48.706;9.258;2023-03-17T14:26:43;97081.34;;;21.37;37.80
21574;BME280;10948;48.706;9.258;2023-03-17T14:29:09;97083.16;;;21.36;39.74
21574;BME280;10948;48.706;9.258;2023-03-17T14:31:38;97082.78;;;21.17;39.80
21574;BME280;10948;48.706;9.258;2023-03-17T14:34:03;97072.88;;;21.41;39.58
21574;BME280;10948;48.706;9.258;2023-03-17T14:36:31;97075.44;;;21.27;38.21
21574;BME280;10948;48.706;9.258;2023-03-17T14:38:56;97078.06;;;21.27;38.90